Time;durP1;ratioP1;P1;durP2;ratioP2;P2;SDS_P1;SDS_P2;PMS_P1;PMS_P2;Temp;Humidity;BMP_temperature;BMP_pressure;BME280_temperature;BME280_humidity;BME280_pressure;Samples;Min_cycle;Max_cycle;Signal;HPM_P1;HPM_P2
2024/01/28 00:06:34;;;;;;;9.00;6.45;;;10.50;70.40;;;;;;20938206;28;20021;-56
2024/01/28 00:16:35;;;;;;;11.18;6.30;;;10.40;70.50;;;;;;20939242;28;20492;-57
2024/01/28 00:26:40;;;;;;;9.82;5.40;;;10.30;70.60;;;;;;20938819;28;20021;-56
2024/01/28 00:36:41;;;;;;;;;;;10.20;70.80;;;;;;20937833;28;20079;-56
2024/01/28 00:46:42;;;;;;;7.00;5.38;;;10.00;70.70;;;;;;20938113;28;19917;-57
2024/01/28 00:56:45;;;;;;;9.23;5.40;;;10.00;71.10;;;;;;20936926;28;20055;-55
2024/01/28 01:06:46;;;;;;;9.35;4.85;;;10.00;71.10;;;;;;20932592;28;20394;-56
2024/01/28 01:16:47;;;;;;;7.78;5.82;;;9.80;71.20;;;;;;20922530;28;20037;-56
2024/01/28 01:26:48;;;;;;;8.02;5.10;;;9.80;71.20;;;;;;20923145;28;20070;-57
2024/01/28 01:36:48;;;;;;;9.23;4.75;;;9.80;71.30;;;;;;20921146;28;20049;-56
2024/01/28 01:46:50;;;;;;;6.07;5.13;;;9.70;71.50;;;;;;20921244;28;20060;-55
2024/01/28 01:56:53;;;;;;;7.40;4.95;;;9.70;71.40;;;;;;20920400;28;20041;-54
2024/01/28 02:06:54;;;;;;;9.10;5.15;;;9.50;71.60;;;;;;20918507;28;20033;-55
2024/01/28 02:16:55;;;;;;;7.00;5.00;;;9.30;71.70;;;;;;20917663;28;20029;-56
2024/01/28 02:26:56;;;;;;;6.53;5.03;;;9.20;71.90;;;;;;20918075;28;20164;-56
2024/01/28 02:36:57;;;;;;;8.73;6.15;;;9.10;72.00;;;;;;20916038;28;20084;-55
2024/01/28 02:47:01;;;;;;;5.53;4.45;;;9.10;72.20;;;;;;20915080;28;20053;-56
2024/01/28 02:57:06;;;;;;;5.53;4.47;;;9.00;72.20;;;;;;20915900;28;20441;-55
2024/01/28 03:07:07;;;;;;;8.27;5.20;;;8.90;72.50;;;;;;20914883;28;20025;-56
2024/01/28 03:17:08;;;;;;;7.32;4.88;;;8.80;72.30;;;;;;20913307;28;20036;-56
2024/01/28 03:27:09;;;;;;;7.30;4.70;;;8.70;72.50;;;;;;20912439;28;20036;-57
2024/01/28 03:37:10;;;;;;;6.10;4.57;;;8.60;72.70;;;;;;20912639;28;20098;-56
2024/01/28 03:47:11;;;;;;;5.10;4.05;;;8.60;73.00;;;;;;20912451;28;20065;-57
2024/01/28 03:57:15;;;;;;;8.80;3.92;;;8.50;72.80;;;;;;20912242;28;20049;-57
2024/01/28 04:07:17;;;;;;;5.47;4.50;;;8.30;73.10;;;;;;20910656;28;20055;-57
2024/01/28 04:17:17;;;;;;;5.47;4.22;;;8.30;73.10;;;;;;20911554;28;20170;-56
2024/01/28 04:27:18;;;;;;;5.97;4.63;;;8.30;73.30;;;;;;20909605;28;20044;-57
2024/01/28 04:37:19;;;;;;;5.57;4.65;;;8.30;73.20;;;;;;20909511;28;20069;-56
2024/01/28 04:47:21;;;;;;;5.68;4.55;;;8.30;73.30;;;;;;20921699;28;20505;-56
2024/01/28 04:57:22;;;;;;;7.35;5.43;;;8.20;73.30;;;;;;20925341;28;20483;-57
2024/01/28 05:07:22;;;;;;;6.95;4.82;;;8.10;73.30;;;;;;20924663;28;20432;-57
2024/01/28 05:17:23;;;;;;;9.32;5.28;;;8.10;73.20;;;;;;20924018;28;20114;-57
2024/01/28 05:27:24;;;;;;;6.70;4.30;;;8.00;73.30;;;;;;20922033;28;20044;-57
2024/01/28 05:37:25;;;;;;;7.32;4.53;;;8.00;73.40;;;;;;20922451;28;20033;-57
2024/01/28 05:47:26;;;;;;;6.50;4.47;;;7.80;73.60;;;;;;20920449;28;20091;-56
2024/01/28 05:57:27;;;;;;;5.28;3.97;;;7.80;73.80;;;;;;20919251;28;20044;-57
2024/01/28 06:07:28;;;;;;;6.03;4.10;;;7.70;73.80;;;;;;20920234;28;20033;-57
2024/01/28 06:17:31;;;;;;;6.93;3.67;;;7.70;73.70;;;;;;20917956;28;20045;-57
2024/01/28 06:27:32;;;;;;;5.22;4.30;;;7.50;73.60;;;;;;20917422;28;20477;-57
2024/01/28 06:37:33;;;;;;;5.35;4.28;;;7.40;73.60;;;;;;20917820;28;20043;-57
2024/01/28 06:47:34;;;;;;;5.57;4.32;;;7.30;73.90;;;;;;20915565;28;20060;-58
2024/01/28 06:57:35;;;;;;;7.07;4.55;;;7.30;74.10;;;;;;20914869;28;20123;-57
2024/01/28 07:07:37;;;;;;;5.93;4.47;;;7.30;74.20;;;;;;20913400;28;20119;-58
2024/01/28 07:17:38;;;;;;;7.07;4.43;;;7.30;74.30;;;;;;20913645;28;20032;-57
2024/01/28 07:27:39;;;;;;;5.57;4.45;;;7.30;74.00;;;;;;20913972;28;20043;-56
2024/01/28 07:37:40;;;;;;;5.35;4.20;;;7.20;73.80;;;;;;20913127;28;20516;-58
2024/01/28 07:47:41;;;;;;;8.55;5.68;;;7.20;74.10;;;;;;20912725;28;20076;-58
2024/01/28 07:57:44;;;;;;;7.50;5.15;;;7.20;74.30;;;;;;20911340;28;20041;-58
2024/01/28 08:07:45;;;;;;;7.55;5.30;;;7.30;74.10;;;;;;20910664;28;20108;-57
2024/01/28 08:17:49;;;;;;;9.25;6.00;;;7.30;74.10;;;;;;20916675;28;20115;-58
2024/01/28 08:27:50;;;;;;;8.27;5.13;;;7.40;73.80;;;;;;20927872;28;20045;-58
2024/01/28 08:37:51;;;;;;;6.38;5.45;;;7.50;73.10;;;;;;20925772;28;20053;-58
2024/01/28 08:47:52;;;;;;;6.95;5.60;;;7.70;73.10;;;;;;20924737;28;20049;-57
2024/01/28 08:57:55;;;;;;;14.13;9.93;;;7.90;72.90;;;;;;20923680;28;20047;-57
2024/01/28 09:07:56;;;;;;;8.60;5.75;;;8.30;72.30;;;;;;20922373;28;20036;-57
2024/01/28 09:17:58;;;;;;;10.85;6.65;;;8.50;71.60;;;;;;20923154;28;20517;-56
2024/01/28 09:27:59;;;;;;;9.25;6.53;;;8.90;70.90;;;;;;20921266;28;20547;-56
2024/01/28 09:38:00;;;;;;;9.05;7.00;;;9.20;70.50;;;;;;20919748;28;20040;-57
2024/01/28 09:48:03;;;;;;;9.88;7.15;;;9.70;69.80;;;;;;20919010;28;20048;-56
2024/01/28 09:58:05;;;;;;;10.23;8.13;;;10.10;69.10;;;;;;20918362;28;20091;-56
2024/01/28 10:08:07;;;;;;;10.30;7.72;;;10.40;68.00;;;;;;20917743;28;20032;-56
2024/01/28 10:18:08;;;;;;;12.48;6.70;;;10.80;67.20;;;;;;20916779;28;20048;-58
2024/01/28 10:28:09;;;;;;;10.98;7.43;;;11.20;65.80;;;;;;20916329;28;20029;-56
2024/01/28 10:38:18;;;;;;;7.88;6.32;;;11.60;64.90;;;;;;20914925;28;20437;-55
2024/01/28 10:48:19;;;;;;;7.65;6.53;;;12.00;63.60;;;;;;20914818;28;20063;-55
2024/01/28 10:58:22;;;;;;;8.50;6.53;;;12.30;62.50;;;;;;20913906;28;20041;-54
2024/01/28 11:08:25;;;;;;;8.27;6.65;;;12.70;61.10;;;;;;20914561;28;20028;-56
2024/01/28 11:18:29;;;;;;;6.13;4.55;;;13.00;60.80;;;;;;20914093;28;20177;-55
2024/01/28 11:28:30;;;;;;;5.80;3.97;;;13.30;59.30;;;;;;20911784;28;20025;-57
2024/01/28 11:38:35;;;;;;;4.22;2.72;;;13.50;56.30;;;;;;20912238;28;20465;-56
2024/01/28 11:48:36;;;;;;;4.82;3.40;;;13.70;54.30;;;;;;20910881;28;20133;-56
2024/01/28 11:58:39;;;;;;;4.82;3.63;;;14.00;54.20;;;;;;20911080;28;20525;-56
2024/01/28 12:08:41;;;;;;;6.57;3.33;;;14.20;54.70;;;;;;20911477;28;20399;-55
2024/01/28 12:18:43;;;;;;;5.68;3.53;;;14.40;52.80;;;;;;20909247;28;20033;-57
2024/01/28 12:28:47;;;;;;;4.78;2.80;;;14.60;52.30;;;;;;20910536;28;20029;-56
2024/01/28 12:38:48;;;;;;;6.68;3.47;;;14.80;51.70;;;;;;20910307;28;20041;-56
2024/01/28 12:48:49;;;;;;;5.10;3.35;;;15.00;50.80;;;;;;20909417;28;20628;-56
2024/01/28 12:58:50;;;;;;;6.57;4.70;;;15.10;51.00;;;;;;20908209;28;20040;-56
2024/01/28 13:08:51;;;;;;;4.75;3.03;;;15.20;50.70;;;;;;20920340;28;20442;-56
2024/01/28 13:18:52;;;;;;;5.95;2.72;;;15.30;50.60;;;;;;20922660;28;20029;-57
2024/01/28 13:28:53;;;;;;;5.57;3.45;;;15.40;50.00;;;;;;20923320;28;20037;-57
2024/01/28 13:38:54;;;;;;;4.55;3.53;;;15.50;49.10;;;;;;20922308;28;20044;-57
2024/01/28 13:48:55;;;;;;;5.18;3.33;;;15.60;49.40;;;;;;20920269;28;20110;-56
2024/01/28 13:58:57;;;;;;;8.38;3.95;;;15.70;49.50;;;;;;20920810;28;20037;-57
2024/01/28 14:08:58;;;;;;;8.43;4.35;;;15.70;50.00;;;;;;20918501;28;20032;-57
2024/01/28 14:18:59;;;;;;;5.60;3.28;;;15.70;50.00;;;;;;20919133;28;20489;-57
2024/01/28 14:29:01;;;;;;;8.05;3.58;;;15.80;49.60;;;;;;20918382;28;20028;-58
2024/01/28 14:39:02;;;;;;;5.53;3.80;;;15.90;49.70;;;;;;20917061;28;20033;-56
2024/01/28 14:49:04;;;;;;;4.70;3.30;;;16.00;49.50;;;;;;20915751;28;20124;-56
2024/01/28 14:59:05;;;;;;;5.75;4.30;;;16.00;49.60;;;;;;20914819;28;20071;-56
2024/01/28 15:09:06;;;;;;;6.13;3.70;;;16.00;50.20;;;;;;20914884;28;20484;-57
2024/01/28 15:19:08;;;;;;;5.50;3.65;;;16.00;50.80;;;;;;20914399;28;20060;-57
2024/01/28 15:29:14;;;;;;;6.57;4.60;;;16.00;50.80;;;;;;20913333;28;20033;-57
2024/01/28 15:39:15;;;;;;;9.45;6.80;;;15.90;51.80;;;;;;20913251;28;20053;-57
2024/01/28 15:49:16;;;;;;;9.18;4.57;;;15.80;52.00;;;;;;20911205;28;20068;-56
2024/01/28 15:59:17;;;;;;;9.27;4.95;;;15.70;52.30;;;;;;20912491;28;20040;-57
2024/01/28 16:09:19;;;;;;;13.05;4.57;;;15.70;52.90;;;;;;20910637;28;20047;-56
2024/01/28 16:19:20;;;;;;;5.85;4.35;;;15.70;53.00;;;;;;20910937;28;20425;-55
2024/01/28 16:29:23;;;;;;;8.38;5.68;;;15.70;53.00;;;;;;20910061;28;20101;-58
2024/01/28 16:39:24;;;;;;;7.95;5.50;;;15.60;53.60;;;;;;20916689;28;20051;-57
2024/01/28 16:49:27;;;;;;;11.52;6.20;;;15.50;54.70;;;;;;20925507;28;20049;-57
2024/01/28 16:59:28;;;;;;;9.63;5.57;;;15.40;55.60;;;;;;20923899;28;20040;-59
2024/01/28 17:09:29;;;;;;;14.00;7.80;;;15.30;56.50;;;;;;20924954;28;20512;-56
2024/01/28 17:19:30;;;;;;;11.25;7.75;;;15.10;57.30;;;;;;20923647;28;20095;-57
2024/01/28 17:29:33;;;;;;;15.52;9.27;;;15.00;58.80;;;;;;20923160;28;20025;-55
2024/01/28 17:39:35;;;;;;;23.52;13.07;;;14.90;59.20;;;;;;20921122;28;20033;-56
2024/01/28 17:49:37;;;;;;;18.42;12.75;;;14.70;60.00;;;;;;20920079;28;20045;-56
2024/01/28 17:59:39;;;;;;;25.80;14.38;;;14.50;60.80;;;;;;20919874;28;20545;-57
2024/01/28 18:09:41;;;;;;;22.83;16.45;;;14.30;61.70;;;;;;20919543;28;20042;-57
2024/01/28 18:19:42;;;;;;;15.10;9.07;;;14.20;62.70;;;;;;20917828;28;20036;-57
2024/01/28 18:29:45;;;;;;;13.20;7.18;;;14.00;63.50;;;;;;20917633;28;20037;-59
2024/01/28 18:39:47;;;;;;;13.23;6.43;;;13.80;63.80;;;;;;20916426;28;20041;-56
2024/01/28 18:49:49;;;;;;;14.95;6.90;;;13.70;63.90;;;;;;20914760;28;20056;-58
2024/01/28 18:59:52;;;;;;;11.05;7.72;;;13.60;64.10;;;;;;20913281;28;20052;-55
2024/01/28 19:09:53;;;;;;;13.18;6.10;;;13.40;64.20;;;;;;20914290;28;20053;-56
2024/01/28 19:19:58;;;;;;;12.03;6.23;;;13.30;64.20;;;;;;20912495;28;20033;-56
2024/01/28 19:30:02;;;;;;;10.38;6.05;;;13.20;64.40;;;;;;20912739;28;20111;-55
2024/01/28 19:40:05;;;;;;;9.07;5.63;;;13.10;64.90;;;;;;20912841;28;20040;-57
2024/01/28 19:50:10;;;;;;;9.73;6.23;;;12.90;66.00;;;;;;20910816;28;20051;-56
2024/01/28 20:00:14;;;;;;;10.50;6.22;;;12.70;66.80;;;;;;20911051;28;20309;-56
2024/01/28 20:10:18;;;;;;;9.40;5.53;;;12.50;67.50;;;;;;20912645;28;20478;-56
2024/01/28 20:20:21;;;;;;;7.22;5.15;;;12.40;67.90;;;;;;20927797;28;20029;-56
2024/01/28 20:30:31;;;;;;;7.88;5.30;;;12.20;68.30;;;;;;20926261;28;20505;-55
2024/01/28 20:40:34;;;;;;;6.60;5.43;;;12.20;68.60;;;;;;20926646;28;20390;-55
2024/01/28 20:50:37;;;;;;;10.50;7.43;;;12.10;68.90;;;;;;20925225;28;20570;-56
2024/01/28 21:00:40;;;;;;;8.90;5.97;;;11.90;69.30;;;;;;20923142;28;20069;-56
2024/01/28 21:10:42;;;;;;;9.30;6.10;;;11.90;69.40;;;;;;20922944;28;20040;-57
2024/01/28 21:20:45;;;;;;;9.73;6.13;;;11.70;69.40;;;;;;20922021;28;20075;-55
2024/01/28 21:30:47;;;;;;;8.93;6.30;;;11.70;69.40;;;;;;20920684;28;20132;-55
2024/01/28 21:40:48;;;;;;;7.97;6.03;;;11.70;69.50;;;;;;20921294;28;20501;-57
2024/01/28 21:50:49;;;;;;;22.13;19.52;;;11.70;69.80;;;;;;20920416;28;20064;-56
2024/01/28 22:00:50;;;;;;;8.15;6.82;;;11.70;69.70;;;;;;20921154;28;20045;-58
2024/01/28 22:10:51;;;;;;;10.48;7.80;;;11.70;69.80;;;;;;20919577;28;20040;-55
2024/01/28 22:20:52;;;;;;;11.98;8.35;;;11.70;69.80;;;;;;20918718;28;20036;-57
2024/01/28 22:30:55;;;;;;;11.20;7.13;;;11.70;70.00;;;;;;20917969;28;20039;-56
2024/01/28 22:40:56;;;;;;;10.40;8.00;;;11.50;70.20;;;;;;20916834;28;20041;-56
2024/01/28 22:51:00;;;;;;;9.82;7.05;;;11.50;70.30;;;;;;20916021;28;20080;-54
2024/01/28 23:01:09;;;;;;;11.65;7.35;;;11.40;70.40;;;;;;20916543;28;20041;-58
2024/01/28 23:11:10;;;;;;;11.90;8.35;;;11.40;70.50;;;;;;20916092;28;20431;-56
2024/01/28 23:21:11;;;;;;;12.32;9.23;;;11.50;70.20;;;;;;20915171;28;20033;-56
2024/01/28 23:31:12;;;;;;;18.80;13.50;;;11.60;69.90;;;;;;20914253;28;20088;-56
2024/01/28 23:41:13;;;;;;;14.10;10.60;;;11.60;70.00;;;;;;20914102;28;20126;-56
2024/01/28 23:51:14;;;;;;;9.80;7.70;;;11.50;70.20;;;;;;20912714;28;20469;-57
